EHBK/MST METAR and TAF weather

Enter ICAO airport designator
Station Type Date Time Source
EHBK METAR 2022/01/19 19:25 UTC NOAA

EHBK 191925Z AUTO 26007KT 220V310 2400 -RA BKN002 OVC003 05/04 Q1022 BECMG 4500 BR BKN006


Station Type Date Time Source
EHBK Decoded METAR 2022/01/19 19:25 UTC NOAA

Maastricht Airport Zuid Limburg, Netherlands (EHBK) 50-55N 005-47E 116M
Jan 19, 2022 - 02:25 PM EST / 2022.01.19 1925 UTC
Wind: from the W (260 degrees) at 8 MPH (7 KT) (direction variable):0
Visibility: 1 mile(s):0
Sky conditions: overcast
Weather: light rain
Temperature: 41 F (5 C)
Dew Point: 39 F (4 C)
Relative Humidity: 93%
Pressure (altimeter): 30.18 in. Hg (1022 hPa)
ob: EHBK 191925Z AUTO 26007KT 220V310 2400 -RA BKN002 OVC003 05/04 Q1022 BECMG 4500 BR BKN006
cycle: 19

Station Type Date Time Source
EHBK TAF 2022/01/19 18:27 UTC NOAA

TAF EHBK 191701Z 1918/2024 23012KT 4000 BR -DZRA BKN004
BECMG 1920/1923 29007KT 9999 NSW SCT025 PROB40
TEMPO 2003/2007 6000 -SHRA FEW015CB
BECMG 2004/2007 32011KT PROB30
TEMPO 2011/2018 6000 -SHRASN FEW015CB

Example: see airport list